sensor_id;sensor_type;location;lat;lon;timestamp;P1;durP1;ratioP1;P2;durP2;ratioP2
2712;SDS011;1366;47.988;7.856;2022-12-20T05:02:27;3.97;;;3.57;;
2712;SDS011;1366;47.988;7.856;2022-12-20T05:04:53;4.40;;;3.20;;
2712;SDS011;1366;47.988;7.856;2022-12-20T05:07:19;3.00;;;2.80;;
2712;SDS011;1366;47.988;7.856;2022-12-20T05:09:45;3.50;;;3.30;;
2712;SDS011;1366;47.988;7.856;2022-12-20T05:12:11;3.73;;;3.43;;
2712;SDS011;1366;47.988;7.856;2022-12-20T05:14:37;4.80;;;4.50;;
2712;SDS011;1366;47.988;7.856;2022-12-20T05:17:03;5.40;;;3.97;;
2712;SDS011;1366;47.988;7.856;2022-12-20T05:19:29;4.50;;;4.10;;
2712;SDS011;1366;47.988;7.856;2022-12-20T05:21:55;3.93;;;3.60;;
2712;SDS011;1366;47.988;7.856;2022-12-20T05:24:40;4.03;;;3.67;;
2712;SDS011;1366;47.988;7.856;2022-12-20T05:27:24;3.60;;;3.40;;
2712;SDS011;1366;47.988;7.856;2022-12-20T05:29:50;4.20;;;3.80;;
2712;SDS011;1366;47.988;7.856;2022-12-20T05:32:16;4.80;;;3.53;;
2712;SDS011;1366;47.988;7.856;2022-12-20T05:34:42;4.00;;;3.70;;
2712;SDS011;1366;47.988;7.856;2022-12-20T05:37:08;3.80;;;3.53;;
2712;SDS011;1366;47.988;7.856;2022-12-20T05:39:34;3.73;;;3.43;;
2712;SDS011;1366;47.988;7.856;2022-12-20T05:42:00;4.37;;;4.07;;
2712;SDS011;1366;47.988;7.856;2022-12-20T05:44:26;3.93;;;3.63;;
2712;SDS011;1366;47.988;7.856;2022-12-20T05:46:52;4.30;;;3.97;;
2712;SDS011;1366;47.988;7.856;2022-12-20T05:49:19;4.93;;;3.97;;
2712;SDS011;1366;47.988;7.856;2022-12-20T05:51:45;4.07;;;3.73;;
2712;SDS011;1366;47.988;7.856;2022-12-20T05:54:11;3.77;;;3.47;;
2712;SDS011;1366;47.988;7.856;2022-12-20T05:56:37;4.17;;;3.77;;
2712;SDS011;1366;47.988;7.856;2022-12-20T05:59:03;7.17;;;4.00;;
2712;SDS011;1366;47.988;7.856;2022-12-20T06:01:29;4.77;;;4.13;;
2712;SDS011;1366;47.988;7.856;2022-12-20T06:03:55;6.10;;;4.60;;
2712;SDS011;1366;47.988;7.856;2022-12-20T06:06:21;4.17;;;3.80;;
2712;SDS011;1366;47.988;7.856;2022-12-20T06:08:47;4.17;;;3.87;;
2712;SDS011;1366;47.988;7.856;2022-12-20T06:11:13;4.87;;;4.47;;
2712;SDS011;1366;47.988;7.856;2022-12-20T06:13:39;5.00;;;4.50;;
2712;SDS011;1366;47.988;7.856;2022-12-20T06:16:05;5.27;;;3.90;;
2712;SDS011;1366;47.988;7.856;2022-12-20T06:18:31;6.10;;;4.47;;
2712;SDS011;1366;47.988;7.856;2022-12-20T06:20:57;4.70;;;4.30;;
2712;SDS011;1366;47.988;7.856;2022-12-20T06:23:23;8.60;;;4.67;;
2712;SDS011;1366;47.988;7.856;2022-12-20T06:25:50;5.50;;;4.60;;
2712;SDS011;1366;47.988;7.856;2022-12-20T06:28:16;4.77;;;4.37;;
2712;SDS011;1366;47.988;7.856;2022-12-20T06:30:51;4.70;;;4.30;;
2712;SDS011;1366;47.988;7.856;2022-12-20T06:33:17;5.50;;;5.00;;
2712;SDS011;1366;47.988;7.856;2022-12-20T06:35:43;6.80;;;5.37;;
2712;SDS011;1366;47.988;7.856;2022-12-20T06:38:09;5.63;;;5.00;;
2712;SDS011;1366;47.988;7.856;2022-12-20T06:40:36;5.33;;;4.83;;
2712;SDS011;1366;47.988;7.856;2022-12-20T06:43:02;4.20;;;3.90;;
2712;SDS011;1366;47.988;7.856;2022-12-20T06:45:28;5.10;;;4.60;;
2712;SDS011;1366;47.988;7.856;2022-12-20T06:47:55;4.03;;;3.73;;
2712;SDS011;1366;47.988;7.856;2022-12-20T06:50:22;4.90;;;4.50;;
2712;SDS011;1366;47.988;7.856;2022-12-20T06:52:48;4.67;;;4.27;;
2712;SDS011;1366;47.988;7.856;2022-12-20T06:55:14;4.90;;;4.50;;
2712;SDS011;1366;47.988;7.856;2022-12-20T06:57:40;4.87;;;4.57;;
2712;SDS011;1366;47.988;7.856;2022-12-20T07:00:07;5.30;;;4.80;;
2712;SDS011;1366;47.988;7.856;2022-12-20T07:02:36;5.57;;;5.13;;
2712;SDS011;1366;47.988;7.856;2022-12-20T07:05:02;4.67;;;4.10;;
2712;SDS011;1366;47.988;7.856;2022-12-20T07:07:29;5.53;;;5.07;;
2712;SDS011;1366;47.988;7.856;2022-12-20T07:09:55;7.37;;;5.07;;
2712;SDS011;1366;47.988;7.856;2022-12-20T07:12:21;5.60;;;3.97;;
2712;SDS011;1366;47.988;7.856;2022-12-20T07:14:47;5.33;;;4.87;;
2712;SDS011;1366;47.988;7.856;2022-12-20T07:17:13;7.13;;;6.53;;
2712;SDS011;1366;47.988;7.856;2022-12-20T07:19:39;5.90;;;5.50;;
2712;SDS011;1366;47.988;7.856;2022-12-20T07:22:06;5.03;;;4.63;;
2712;SDS011;1366;47.988;7.856;2022-12-20T07:24:32;5.67;;;5.23;;
2712;SDS011;1366;47.988;7.856;2022-12-20T07:26:58;4.90;;;4.50;;
2712;SDS011;1366;47.988;7.856;2022-12-20T07:29:24;6.70;;;5.20;;
2712;SDS011;1366;47.988;7.856;2022-12-20T07:31:50;5.70;;;5.30;;
2712;SDS011;1366;47.988;7.856;2022-12-20T07:34:16;5.43;;;4.90;;
2712;SDS011;1366;47.988;7.856;2022-12-20T07:36:43;6.07;;;5.57;;
2712;SDS011;1366;47.988;7.856;2022-12-20T07:39:09;5.40;;;5.00;;
2712;SDS011;1366;47.988;7.856;2022-12-20T07:41:35;5.20;;;4.67;;
2712;SDS011;1366;47.988;7.856;2022-12-20T07:44:01;5.80;;;5.30;;
2712;SDS011;1366;47.988;7.856;2022-12-20T07:46:27;6.73;;;5.73;;
2712;SDS011;1366;47.988;7.856;2022-12-20T07:48:54;5.57;;;5.10;;
2712;SDS011;1366;47.988;7.856;2022-12-20T07:51:22;6.10;;;5.50;;
2712;SDS011;1366;47.988;7.856;2022-12-20T07:53:55;6.00;;;5.30;;
2712;SDS011;1366;47.988;7.856;2022-12-20T07:56:23;5.67;;;5.07;;
2712;SDS011;1366;47.988;7.856;2022-12-20T07:58:50;5.80;;;5.30;;
2712;SDS011;1366;47.988;7.856;2022-12-20T08:01:16;6.23;;;5.70;;
2712;SDS011;1366;47.988;7.856;2022-12-20T08:03:44;10.33;;;5.63;;
2712;SDS011;1366;47.988;7.856;2022-12-20T08:06:12;5.97;;;5.43;;
2712;SDS011;1366;47.988;7.856;2022-12-20T08:08:39;6.20;;;5.70;;
2712;SDS011;1366;47.988;7.856;2022-12-20T08:11:06;6.20;;;4.87;;
2712;SDS011;1366;47.988;7.856;2022-12-20T08:13:33;6.00;;;5.50;;
2712;SDS011;1366;47.988;7.856;2022-12-20T08:15:59;6.00;;;5.40;;
2712;SDS011;1366;47.988;7.856;2022-12-20T08:18:25;5.83;;;5.27;;
2712;SDS011;1366;47.988;7.856;2022-12-20T08:20:51;5.57;;;5.07;;
2712;SDS011;1366;47.988;7.856;2022-12-20T08:23:17;6.90;;;6.30;;
2712;SDS011;1366;47.988;7.856;2022-12-20T08:25:43;5.60;;;5.10;;
2712;SDS011;1366;47.988;7.856;2022-12-20T08:28:09;6.47;;;5.80;;
2712;SDS011;1366;47.988;7.856;2022-12-20T08:30:36;7.20;;;5.73;;
2712;SDS011;1366;47.988;7.856;2022-12-20T08:33:02;6.93;;;6.23;;
2712;SDS011;1366;47.988;7.856;2022-12-20T08:35:29;7.00;;;5.70;;
2712;SDS011;1366;47.988;7.856;2022-12-20T08:37:55;7.20;;;6.20;;
2712;SDS011;1366;47.988;7.856;2022-12-20T08:40:21;7.93;;;6.90;;
2712;SDS011;1366;47.988;7.856;2022-12-20T08:42:47;10.80;;;6.00;;
2712;SDS011;1366;47.988;7.856;2022-12-20T08:45:14;8.20;;;6.83;;
2712;SDS011;1366;47.988;7.856;2022-12-20T08:47:40;5.67;;;5.13;;
2712;SDS011;1366;47.988;7.856;2022-12-20T08:50:06;6.17;;;5.60;;
2712;SDS011;1366;47.988;7.856;2022-12-20T08:52:32;6.03;;;5.43;;
2712;SDS011;1366;47.988;7.856;2022-12-20T08:54:58;6.20;;;5.70;;
2712;SDS011;1366;47.988;7.856;2022-12-20T08:57:24;5.83;;;5.23;;
2712;SDS011;1366;47.988;7.856;2022-12-20T08:59:50;5.90;;;5.40;;
2712;SDS011;1366;47.988;7.856;2022-12-20T09:02:16;6.13;;;5.63;;
2712;SDS011;1366;47.988;7.856;2022-12-20T09:04:42;6.60;;;6.10;;
2712;SDS011;1366;47.988;7.856;2022-12-20T09:07:08;7.03;;;6.43;;
2712;SDS011;1366;47.988;7.856;2022-12-20T09:09:35;7.03;;;6.40;;
2712;SDS011;1366;47.988;7.856;2022-12-20T09:12:01;6.90;;;6.30;;
2712;SDS011;1366;47.988;7.856;2022-12-20T09:14:27;5.90;;;5.40;;
2712;SDS011;1366;47.988;7.856;2022-12-20T09:16:53;6.40;;;5.80;;
2712;SDS011;1366;47.988;7.856;2022-12-20T09:19:19;7.43;;;6.20;;
2712;SDS011;1366;47.988;7.856;2022-12-20T09:21:45;8.07;;;6.60;;
2712;SDS011;1366;47.988;7.856;2022-12-20T09:24:11;7.30;;;6.47;;
2712;SDS011;1366;47.988;7.856;2022-12-20T09:26:37;7.40;;;6.70;;
2712;SDS011;1366;47.988;7.856;2022-12-20T09:29:04;8.00;;;6.47;;
2712;SDS011;1366;47.988;7.856;2022-12-20T09:31:30;6.77;;;6.27;;
2712;SDS011;1366;47.988;7.856;2022-12-20T09:33:57;5.80;;;5.40;;
2712;SDS011;1366;47.988;7.856;2022-12-20T09:36:24;7.33;;;6.60;;
2712;SDS011;1366;47.988;7.856;2022-12-20T09:38:51;6.33;;;5.27;;
2712;SDS011;1366;47.988;7.856;2022-12-20T09:43:52;7.00;;;6.37;;
2712;SDS011;1366;47.988;7.856;2022-12-20T09:46:20;6.77;;;6.10;;
2712;SDS011;1366;47.988;7.856;2022-12-20T09:48:47;6.60;;;5.97;;
2712;SDS011;1366;47.988;7.856;2022-12-20T09:53:59;12.00;;;8.90;;
2712;SDS011;1366;47.988;7.856;2022-12-20T09:56:40;10.40;;;9.30;;
2712;SDS011;1366;47.988;7.856;2022-12-20T09:59:14;10.27;;;8.50;;
2712;SDS011;1366;47.988;7.856;2022-12-20T10:01:46;10.23;;;8.80;;
2712;SDS011;1366;47.988;7.856;2022-12-20T10:04:20;9.77;;;7.67;;
2712;SDS011;1366;47.988;7.856;2022-12-20T10:17:26;6.40;;;5.80;;
2712;SDS011;1366;47.988;7.856;2022-12-20T10:22:38;7.10;;;6.20;;
2712;SDS011;1366;47.988;7.856;2022-12-20T10:25:16;6.73;;;6.13;;
2712;SDS011;1366;47.988;7.856;2022-12-20T10:27:43;6.80;;;6.20;;
2712;SDS011;1366;47.988;7.856;2022-12-20T10:30:18;6.70;;;6.10;;
2712;SDS011;1366;47.988;7.856;2022-12-20T10:32:46;7.80;;;7.00;;
2712;SDS011;1366;47.988;7.856;2022-12-20T10:35:21;8.03;;;7.33;;
2712;SDS011;1366;47.988;7.856;2022-12-20T10:37:55;7.67;;;6.87;;
2712;SDS011;1366;47.988;7.856;2022-12-20T10:40:25;9.77;;;7.63;;
2712;SDS011;1366;47.988;7.856;2022-12-20T10:42:51;10.10;;;8.33;;
2712;SDS011;1366;47.988;7.856;2022-12-20T10:47:44;8.10;;;7.30;;
2712;SDS011;1366;47.988;7.856;2022-12-20T10:52:40;8.33;;;7.60;;
2712;SDS011;1366;47.988;7.856;2022-12-20T10:55:31;9.03;;;8.13;;
2712;SDS011;1366;47.988;7.856;2022-12-20T10:58:00;9.13;;;8.23;;
2712;SDS011;1366;47.988;7.856;2022-12-20T11:00:27;9.43;;;8.27;;
2712;SDS011;1366;47.988;7.856;2022-12-20T11:03:03;9.17;;;8.37;;
2712;SDS011;1366;47.988;7.856;2022-12-20T11:05:30;9.50;;;8.60;;
2712;SDS011;1366;47.988;7.856;2022-12-20T11:07:57;8.13;;;7.30;;
2712;SDS011;1366;47.988;7.856;2022-12-20T11:10:25;8.50;;;7.70;;
2712;SDS011;1366;47.988;7.856;2022-12-20T11:12:52;9.43;;;8.37;;
2712;SDS011;1366;47.988;7.856;2022-12-20T11:15:19;9.20;;;8.20;;
2712;SDS011;1366;47.988;7.856;2022-12-20T11:17:46;9.10;;;8.30;;
2712;SDS011;1366;47.988;7.856;2022-12-20T11:38:48;8.70;;;7.90;;
2712;SDS011;1366;47.988;7.856;2022-12-20T11:44:02;8.50;;;7.57;;
2712;SDS011;1366;47.988;7.856;2022-12-20T11:46:45;8.97;;;8.17;;
2712;SDS011;1366;47.988;7.856;2022-12-20T11:51:59;7.50;;;6.83;;
2712;SDS011;1366;47.988;7.856;2022-12-20T11:54:29;8.47;;;7.77;;
2712;SDS011;1366;47.988;7.856;2022-12-20T11:57:02;8.53;;;7.80;;
2712;SDS011;1366;47.988;7.856;2022-12-20T12:02:12;9.17;;;7.90;;
2712;SDS011;1366;47.988;7.856;2022-12-20T12:04:46;9.20;;;8.40;;
2712;SDS011;1366;47.988;7.856;2022-12-20T12:07:16;9.40;;;8.30;;
2712;SDS011;1366;47.988;7.856;2022-12-20T12:20:03;11.40;;;9.03;;
2712;SDS011;1366;47.988;7.856;2022-12-20T12:22:34;10.03;;;8.10;;
2712;SDS011;1366;47.988;7.856;2022-12-20T12:25:01;9.07;;;8.33;;
2712;SDS011;1366;47.988;7.856;2022-12-20T12:27:29;9.50;;;8.63;;
2712;SDS011;1366;47.988;7.856;2022-12-20T12:29:56;10.07;;;9.07;;
2712;SDS011;1366;47.988;7.856;2022-12-20T12:42:44;9.60;;;8.70;;
2712;SDS011;1366;47.988;7.856;2022-12-20T12:45:18;9.23;;;8.43;;
2712;SDS011;1366;47.988;7.856;2022-12-20T12:47:50;8.93;;;8.13;;
2712;SDS011;1366;47.988;7.856;2022-12-20T12:52:54;8.47;;;7.73;;
2712;SDS011;1366;47.988;7.856;2022-12-20T12:58:11;7.73;;;6.87;;
2712;SDS011;1366;47.988;7.856;2022-12-20T13:03:13;7.70;;;7.00;;
2712;SDS011;1366;47.988;7.856;2022-12-20T13:05:40;7.87;;;7.13;;
2712;SDS011;1366;47.988;7.856;2022-12-20T13:08:16;8.30;;;7.50;;
2712;SDS011;1366;47.988;7.856;2022-12-20T13:13:12;8.60;;;7.80;;
2712;SDS011;1366;47.988;7.856;2022-12-20T13:20:34;6.40;;;5.80;;
2712;SDS011;1366;47.988;7.856;2022-12-20T13:25:33;6.20;;;5.60;;
2712;SDS011;1366;47.988;7.856;2022-12-20T13:30:42;6.03;;;5.20;;
2712;SDS011;1366;47.988;7.856;2022-12-20T13:33:22;5.93;;;5.40;;
2712;SDS011;1366;47.988;7.856;2022-12-20T13:35:56;5.83;;;5.33;;
2712;SDS011;1366;47.988;7.856;2022-12-20T13:41:11;6.07;;;5.50;;
2712;SDS011;1366;47.988;7.856;2022-12-20T13:43:41;6.07;;;5.57;;
2712;SDS011;1366;47.988;7.856;2022-12-20T13:51:02;6.60;;;6.00;;
2712;SDS011;1366;47.988;7.856;2022-12-20T13:53:29;6.57;;;5.97;;
2712;SDS011;1366;47.988;7.856;2022-12-20T13:55:55;5.80;;;5.40;;
2712;SDS011;1366;47.988;7.856;2022-12-20T13:58:23;6.23;;;5.63;;
2712;SDS011;1366;47.988;7.856;2022-12-20T14:00:49;6.03;;;5.53;;
2712;SDS011;1366;47.988;7.856;2022-12-20T14:03:23;5.83;;;5.43;;
2712;SDS011;1366;47.988;7.856;2022-12-20T14:05:57;5.17;;;4.37;;
2712;SDS011;1366;47.988;7.856;2022-12-20T14:08:25;5.30;;;4.90;;
2712;SDS011;1366;47.988;7.856;2022-12-20T14:10:52;6.07;;;5.57;;
2712;SDS011;1366;47.988;7.856;2022-12-20T14:13:25;6.60;;;6.00;;
2712;SDS011;1366;47.988;7.856;2022-12-20T14:15:51;8.47;;;6.90;;
2712;SDS011;1366;47.988;7.856;2022-12-20T14:20:44;7.30;;;6.10;;
2712;SDS011;1366;47.988;7.856;2022-12-20T14:23:15;6.00;;;5.50;;
2712;SDS011;1366;47.988;7.856;2022-12-20T14:28:21;6.53;;;5.93;;
2712;SDS011;1366;47.988;7.856;2022-12-20T14:30:50;6.43;;;5.57;;
2712;SDS011;1366;47.988;7.856;2022-12-20T14:33:20;5.77;;;5.13;;
2712;SDS011;1366;47.988;7.856;2022-12-20T14:35:50;5.57;;;4.70;;
2712;SDS011;1366;47.988;7.856;2022-12-20T14:38:22;5.90;;;5.20;;
2712;SDS011;1366;47.988;7.856;2022-12-20T14:40:49;4.87;;;4.47;;
2712;SDS011;1366;47.988;7.856;2022-12-20T14:43:20;4.93;;;4.53;;
2712;SDS011;1366;47.988;7.856;2022-12-20T14:45:48;4.30;;;4.00;;
2712;SDS011;1366;47.988;7.856;2022-12-20T14:48:14;4.77;;;4.27;;
2712;SDS011;1366;47.988;7.856;2022-12-20T14:50:49;3.70;;;3.40;;
2712;SDS011;1366;47.988;7.856;2022-12-20T14:53:20;4.20;;;3.70;;
2712;SDS011;1366;47.988;7.856;2022-12-20T14:55:48;4.47;;;4.07;;
2712;SDS011;1366;47.988;7.856;2022-12-20T14:58:22;5.17;;;4.70;;
2712;SDS011;1366;47.988;7.856;2022-12-20T15:03:24;5.90;;;5.23;;
2712;SDS011;1366;47.988;7.856;2022-12-20T15:05:51;6.40;;;5.40;;
2712;SDS011;1366;47.988;7.856;2022-12-20T15:10:58;6.47;;;5.83;;
2712;SDS011;1366;47.988;7.856;2022-12-20T15:13:46;6.80;;;6.20;;
2712;SDS011;1366;47.988;7.856;2022-12-20T15:16:29;10.23;;;5.97;;
2712;SDS011;1366;47.988;7.856;2022-12-20T15:18:56;6.90;;;6.30;;
2712;SDS011;1366;47.988;7.856;2022-12-20T15:21:26;6.90;;;6.20;;
2712;SDS011;1366;47.988;7.856;2022-12-20T15:23:53;6.67;;;6.10;;
2712;SDS011;1366;47.988;7.856;2022-12-20T15:26:21;7.00;;;6.30;;
2712;SDS011;1366;47.988;7.856;2022-12-20T15:28:48;6.97;;;6.03;;
2712;SDS011;1366;47.988;7.856;2022-12-20T15:31:15;8.10;;;6.60;;
2712;SDS011;1366;47.988;7.856;2022-12-20T15:33:42;6.93;;;5.70;;
2712;SDS011;1366;47.988;7.856;2022-12-20T15:36:30;10.80;;;5.33;;
2712;SDS011;1366;47.988;7.856;2022-12-20T15:38:55;6.07;;;5.30;;
2712;SDS011;1366;47.988;7.856;2022-12-20T15:43:49;7.40;;;6.70;;
2712;SDS011;1366;47.988;7.856;2022-12-20T15:46:16;8.00;;;7.30;;
2712;SDS011;1366;47.988;7.856;2022-12-20T15:48:42;7.40;;;6.70;;
2712;SDS011;1366;47.988;7.856;2022-12-20T15:53:46;8.00;;;7.20;;
2712;SDS011;1366;47.988;7.856;2022-12-20T15:56:16;8.20;;;7.10;;
2712;SDS011;1366;47.988;7.856;2022-12-20T15:58:42;8.70;;;7.63;;
2712;SDS011;1366;47.988;7.856;2022-12-20T16:01:08;8.67;;;7.77;;
2712;SDS011;1366;47.988;7.856;2022-12-20T16:03:36;9.53;;;7.87;;
2712;SDS011;1366;47.988;7.856;2022-12-20T16:06:02;9.40;;;8.50;;
2712;SDS011;1366;47.988;7.856;2022-12-20T16:08:28;9.20;;;8.20;;
2712;SDS011;1366;47.988;7.856;2022-12-20T16:10:55;8.53;;;7.70;;
2712;SDS011;1366;47.988;7.856;2022-12-20T16:13:24;7.37;;;6.67;;
2712;SDS011;1366;47.988;7.856;2022-12-20T16:15:50;8.40;;;7.60;;
2712;SDS011;1366;47.988;7.856;2022-12-20T16:18:16;9.40;;;8.50;;
2712;SDS011;1366;47.988;7.856;2022-12-20T16:20:42;9.63;;;8.70;;
2712;SDS011;1366;47.988;7.856;2022-12-20T16:23:18;8.90;;;8.00;;
2712;SDS011;1366;47.988;7.856;2022-12-20T16:25:46;8.33;;;7.33;;
2712;SDS011;1366;47.988;7.856;2022-12-20T16:28:13;9.93;;;8.70;;
2712;SDS011;1366;47.988;7.856;2022-12-20T16:30:39;9.93;;;7.70;;
2712;SDS011;1366;47.988;7.856;2022-12-20T16:33:05;9.50;;;8.53;;
2712;SDS011;1366;47.988;7.856;2022-12-20T16:35:33;9.13;;;8.13;;
2712;SDS011;1366;47.988;7.856;2022-12-20T16:38:01;9.50;;;8.10;;
2712;SDS011;1366;47.988;7.856;2022-12-20T16:40:28;9.93;;;8.10;;
2712;SDS011;1366;47.988;7.856;2022-12-20T16:42:55;9.47;;;7.90;;
2712;SDS011;1366;47.988;7.856;2022-12-20T16:45:25;8.67;;;7.63;;
2712;SDS011;1366;47.988;7.856;2022-12-20T16:47:52;11.03;;;9.10;;
2712;SDS011;1366;47.988;7.856;2022-12-20T16:50:19;9.67;;;8.60;;
2712;SDS011;1366;47.988;7.856;2022-12-20T16:52:45;10.80;;;9.50;;
2712;SDS011;1366;47.988;7.856;2022-12-20T16:55:18;11.03;;;9.90;;
2712;SDS011;1366;47.988;7.856;2022-12-20T16:57:45;9.83;;;8.83;;
2712;SDS011;1366;47.988;7.856;2022-12-20T17:00:14;11.60;;;9.40;;
2712;SDS011;1366;47.988;7.856;2022-12-20T17:02:41;10.23;;;9.17;;
2712;SDS011;1366;47.988;7.856;2022-12-20T17:05:10;9.50;;;8.53;;
2712;SDS011;1366;47.988;7.856;2022-12-20T17:07:40;10.10;;;9.17;;
2712;SDS011;1366;47.988;7.856;2022-12-20T17:10:06;9.80;;;8.90;;
2712;SDS011;1366;47.988;7.856;2022-12-20T17:12:34;9.33;;;8.50;;
2712;SDS011;1366;47.988;7.856;2022-12-20T17:15:00;9.80;;;8.77;;
2712;SDS011;1366;47.988;7.856;2022-12-20T17:17:26;7.97;;;7.27;;
2712;SDS011;1366;47.988;7.856;2022-12-20T17:19:53;9.37;;;8.37;;
2712;SDS011;1366;47.988;7.856;2022-12-20T17:22:19;8.47;;;7.67;;
2712;SDS011;1366;47.988;7.856;2022-12-20T17:24:45;9.17;;;8.20;;
2712;SDS011;1366;47.988;7.856;2022-12-20T17:27:11;11.47;;;8.43;;
2712;SDS011;1366;47.988;7.856;2022-12-20T17:29:37;10.40;;;8.70;;
2712;SDS011;1366;47.988;7.856;2022-12-20T17:32:09;9.47;;;8.57;;
2712;SDS011;1366;47.988;7.856;2022-12-20T17:34:41;9.00;;;8.10;;
2712;SDS011;1366;47.988;7.856;2022-12-20T17:37:07;8.63;;;7.73;;
2712;SDS011;1366;47.988;7.856;2022-12-20T17:39:34;9.17;;;8.37;;
2712;SDS011;1366;47.988;7.856;2022-12-20T17:42:00;8.70;;;7.87;;
2712;SDS011;1366;47.988;7.856;2022-12-20T17:44:26;10.37;;;8.10;;
2712;SDS011;1366;47.988;7.856;2022-12-20T17:46:53;8.97;;;8.10;;
2712;SDS011;1366;47.988;7.856;2022-12-20T17:49:20;8.83;;;8.00;;
2712;SDS011;1366;47.988;7.856;2022-12-20T17:51:49;12.00;;;8.97;;
2712;SDS011;1366;47.988;7.856;2022-12-20T17:54:19;10.10;;;8.90;;
2712;SDS011;1366;47.988;7.856;2022-12-20T17:56:45;9.97;;;9.00;;
2712;SDS011;1366;47.988;7.856;2022-12-20T17:59:12;8.83;;;7.90;;
2712;SDS011;1366;47.988;7.856;2022-12-20T18:01:39;8.70;;;7.90;;
2712;SDS011;1366;47.988;7.856;2022-12-20T18:04:06;9.23;;;8.30;;
2712;SDS011;1366;47.988;7.856;2022-12-20T18:06:33;9.33;;;8.33;;
2712;SDS011;1366;47.988;7.856;2022-12-20T18:09:01;9.47;;;8.53;;
2712;SDS011;1366;47.988;7.856;2022-12-20T18:11:27;9.47;;;8.63;;
2712;SDS011;1366;47.988;7.856;2022-12-20T18:13:55;10.50;;;8.83;;
2712;SDS011;1366;47.988;7.856;2022-12-20T18:16:23;8.57;;;7.80;;
2712;SDS011;1366;47.988;7.856;2022-12-20T18:18:49;9.00;;;8.13;;
2712;SDS011;1366;47.988;7.856;2022-12-20T18:21:16;9.70;;;8.30;;
2712;SDS011;1366;47.988;7.856;2022-12-20T18:23:43;10.43;;;9.23;;
2712;SDS011;1366;47.988;7.856;2022-12-20T18:28:36;9.87;;;8.87;;
2712;SDS011;1366;47.988;7.856;2022-12-20T18:31:03;11.33;;;8.90;;
2712;SDS011;1366;47.988;7.856;2022-12-20T18:33:30;9.73;;;8.60;;
2712;SDS011;1366;47.988;7.856;2022-12-20T18:36:06;10.17;;;9.27;;
2712;SDS011;1366;47.988;7.856;2022-12-20T18:38:33;10.50;;;9.50;;
2712;SDS011;1366;47.988;7.856;2022-12-20T18:41:00;11.73;;;9.10;;
2712;SDS011;1366;47.988;7.856;2022-12-20T18:43:27;9.73;;;8.73;;
2712;SDS011;1366;47.988;7.856;2022-12-20T18:45:54;9.60;;;8.70;;
2712;SDS011;1366;47.988;7.856;2022-12-20T18:48:20;12.10;;;10.10;;
2712;SDS011;1366;47.988;7.856;2022-12-20T18:50:48;10.60;;;9.57;;
2712;SDS011;1366;47.988;7.856;2022-12-20T18:53:14;13.00;;;10.53;;
2712;SDS011;1366;47.988;7.856;2022-12-20T18:55:40;13.50;;;10.53;;
2712;SDS011;1366;47.988;7.856;2022-12-20T18:58:06;12.63;;;11.33;;
2712;SDS011;1366;47.988;7.856;2022-12-20T19:00:32;12.87;;;11.23;;
2712;SDS011;1366;47.988;7.856;2022-12-20T19:02:58;19.33;;;13.37;;
2712;SDS011;1366;47.988;7.856;2022-12-20T19:05:26;15.57;;;12.50;;
2712;SDS011;1366;47.988;7.856;2022-12-20T19:07:53;12.10;;;10.57;;
2712;SDS011;1366;47.988;7.856;2022-12-20T19:10:19;15.50;;;10.80;;
2712;SDS011;1366;47.988;7.856;2022-12-20T19:12:45;12.57;;;11.20;;
2712;SDS011;1366;47.988;7.856;2022-12-20T19:15:11;14.53;;;11.10;;
2712;SDS011;1366;47.988;7.856;2022-12-20T19:17:38;14.87;;;11.90;;
2712;SDS011;1366;47.988;7.856;2022-12-20T19:20:05;14.27;;;12.00;;
2712;SDS011;1366;47.988;7.856;2022-12-20T19:22:31;13.10;;;11.57;;
2712;SDS011;1366;47.988;7.856;2022-12-20T19:24:57;14.80;;;11.80;;
2712;SDS011;1366;47.988;7.856;2022-12-20T19:27:23;14.10;;;12.33;;
2712;SDS011;1366;47.988;7.856;2022-12-20T19:29:49;14.70;;;11.20;;
2712;SDS011;1366;47.988;7.856;2022-12-20T19:32:16;13.40;;;10.93;;
2712;SDS011;1366;47.988;7.856;2022-12-20T19:34:42;13.37;;;11.97;;
2712;SDS011;1366;47.988;7.856;2022-12-20T19:37:09;12.77;;;11.47;;
2712;SDS011;1366;47.988;7.856;2022-12-20T19:39:35;13.70;;;12.30;;
2712;SDS011;1366;47.988;7.856;2022-12-20T19:42:01;13.93;;;12.43;;
2712;SDS011;1366;47.988;7.856;2022-12-20T19:44:28;15.90;;;13.37;;
2712;SDS011;1366;47.988;7.856;2022-12-20T19:46:54;14.83;;;13.23;;
2712;SDS011;1366;47.988;7.856;2022-12-20T19:49:20;15.13;;;13.10;;
2712;SDS011;1366;47.988;7.856;2022-12-20T19:51:47;13.57;;;12.13;;
2712;SDS011;1366;47.988;7.856;2022-12-20T19:54:13;14.80;;;12.63;;
2712;SDS011;1366;47.988;7.856;2022-12-20T19:56:39;14.40;;;13.00;;
2712;SDS011;1366;47.988;7.856;2022-12-20T19:59:05;13.40;;;12.00;;
2712;SDS011;1366;47.988;7.856;2022-12-20T20:01:31;15.07;;;13.57;;
2712;SDS011;1366;47.988;7.856;2022-12-20T20:03:58;12.90;;;11.50;;
2712;SDS011;1366;47.988;7.856;2022-12-20T20:06:25;12.63;;;11.33;;
2712;SDS011;1366;47.988;7.856;2022-12-20T20:08:52;13.23;;;12.00;;
2712;SDS011;1366;47.988;7.856;2022-12-20T20:11:21;12.30;;;11.03;;
2712;SDS011;1366;47.988;7.856;2022-12-20T20:13:47;12.30;;;11.10;;
2712;SDS011;1366;47.988;7.856;2022-12-20T20:16:13;12.93;;;11.40;;
2712;SDS011;1366;47.988;7.856;2022-12-20T20:18:39;12.13;;;10.97;;
2712;SDS011;1366;47.988;7.856;2022-12-20T20:21:06;11.70;;;10.10;;
2712;SDS011;1366;47.988;7.856;2022-12-20T20:23:33;11.50;;;10.30;;
2712;SDS011;1366;47.988;7.856;2022-12-20T20:26:00;10.10;;;9.10;;
2712;SDS011;1366;47.988;7.856;2022-12-20T20:28:26;11.13;;;9.70;;
2712;SDS011;1366;47.988;7.856;2022-12-20T20:30:53;12.00;;;10.40;;
2712;SDS011;1366;47.988;7.856;2022-12-20T20:33:19;10.90;;;9.80;;
2712;SDS011;1366;47.988;7.856;2022-12-20T20:35:52;11.00;;;9.73;;
2712;SDS011;1366;47.988;7.856;2022-12-20T20:38:18;11.60;;;10.37;;
2712;SDS011;1366;47.988;7.856;2022-12-20T20:40:44;11.10;;;10.00;;
2712;SDS011;1366;47.988;7.856;2022-12-20T20:43:10;10.57;;;9.57;;
2712;SDS011;1366;47.988;7.856;2022-12-20T20:45:36;11.43;;;10.27;;
2712;SDS011;1366;47.988;7.856;2022-12-20T20:48:03;13.43;;;11.17;;
2712;SDS011;1366;47.988;7.856;2022-12-20T20:50:29;12.70;;;9.67;;
2712;SDS011;1366;47.988;7.856;2022-12-20T20:52:55;10.80;;;9.70;;
2712;SDS011;1366;47.988;7.856;2022-12-20T20:55:21;9.70;;;8.70;;
2712;SDS011;1366;47.988;7.856;2022-12-20T20:57:47;9.00;;;8.13;;
2712;SDS011;1366;47.988;7.856;2022-12-20T21:00:14;9.50;;;8.17;;
2712;SDS011;1366;47.988;7.856;2022-12-20T21:02:40;9.23;;;8.40;;
2712;SDS011;1366;47.988;7.856;2022-12-20T21:05:07;9.73;;;8.83;;
2712;SDS011;1366;47.988;7.856;2022-12-20T21:07:34;10.87;;;9.27;;
2712;SDS011;1366;47.988;7.856;2022-12-20T21:10:00;8.70;;;7.90;;
2712;SDS011;1366;47.988;7.856;2022-12-20T21:12:26;9.97;;;9.07;;
2712;SDS011;1366;47.988;7.856;2022-12-20T21:14:52;9.53;;;8.63;;
2712;SDS011;1366;47.988;7.856;2022-12-20T21:17:20;9.40;;;8.50;;
2712;SDS011;1366;47.988;7.856;2022-12-20T21:19:46;11.10;;;8.00;;
2712;SDS011;1366;47.988;7.856;2022-12-20T21:22:12;9.10;;;8.20;;
2712;SDS011;1366;47.988;7.856;2022-12-20T21:24:38;8.80;;;7.90;;
2712;SDS011;1366;47.988;7.856;2022-12-20T21:27:05;8.80;;;8.00;;
2712;SDS011;1366;47.988;7.856;2022-12-20T21:29:31;8.53;;;7.73;;
2712;SDS011;1366;47.988;7.856;2022-12-20T21:31:57;8.30;;;7.50;;
2712;SDS011;1366;47.988;7.856;2022-12-20T21:34:24;8.70;;;8.00;;
2712;SDS011;1366;47.988;7.856;2022-12-20T21:36:50;10.27;;;8.50;;
2712;SDS011;1366;47.988;7.856;2022-12-20T21:39:16;8.80;;;7.73;;
2712;SDS011;1366;47.988;7.856;2022-12-20T21:41:42;9.53;;;8.63;;
2712;SDS011;1366;47.988;7.856;2022-12-20T21:44:08;11.03;;;9.10;;
2712;SDS011;1366;47.988;7.856;2022-12-20T21:46:35;8.67;;;7.97;;
2712;SDS011;1366;47.988;7.856;2022-12-20T21:49:02;9.00;;;8.03;;
2712;SDS011;1366;47.988;7.856;2022-12-20T21:51:28;8.77;;;7.97;;
2712;SDS011;1366;47.988;7.856;2022-12-20T21:53:55;9.33;;;8.00;;
2712;SDS011;1366;47.988;7.856;2022-12-20T21:56:23;9.33;;;8.43;;
2712;SDS011;1366;47.988;7.856;2022-12-20T21:58:50;9.07;;;8.17;;
2712;SDS011;1366;47.988;7.856;2022-12-20T22:01:18;9.90;;;8.00;;
2712;SDS011;1366;47.988;7.856;2022-12-20T22:03:44;9.43;;;8.57;;
2712;SDS011;1366;47.988;7.856;2022-12-20T22:06:10;8.80;;;8.00;;
2712;SDS011;1366;47.988;7.856;2022-12-20T22:08:36;7.90;;;7.10;;
2712;SDS011;1366;47.988;7.856;2022-12-20T22:11:03;8.67;;;7.77;;